Au Sable Chasm, New York
Current Conditions -  °F | °C
As of 6:12 AM on Sunday 23 Nov 2014 (Local Time) from KPBG Reporting Station
Light Rain Light Rain  
Wind Chill: 35°   Ceiling: 3400
Heat Index: 39°   Visibility: 9mi
Dew Point: 36°   Wind: 6mph
Humidity: 89%   Direction: 180°S
Pressure: 29.99"   Gusts: NA
Location:  44.5125°N, 73.5235°W
Report Text: KPBG 231112Z AUTO 18005KT 9SM -RA FEW022 BKN034 OVC048 04/02 A2999 RMK AO2 RAB08 P0000 T00390022
Loading
Personal Weather Stations






























Interactive Weather Map New forecast layout! Learn more

10-Day Weather Forecast

Advertisements
Track Severe Weather on mobile